sensor_id;sensor_type;location;lat;lon;timestamp;temperature;humidity
76211;DHT22;65003;49.518;11.280;2024-03-02T00:00:24;7.70;99.90
76211;DHT22;65003;49.518;11.280;2024-03-02T00:02:51;7.70;99.90
76211;DHT22;65003;49.518;11.280;2024-03-02T00:05:20;7.70;99.90
76211;DHT22;65003;49.518;11.280;2024-03-02T00:07:45;7.80;99.90
76211;DHT22;65003;49.518;11.280;2024-03-02T00:10:15;7.80;99.90
76211;DHT22;65003;49.518;11.280;2024-03-02T00:12:40;7.80;99.90
76211;DHT22;65003;49.518;11.280;2024-03-02T00:17:40;7.90;99.90
76211;DHT22;65003;49.518;11.280;2024-03-02T00:20:08;7.80;99.90
76211;DHT22;65003;49.518;11.280;2024-03-02T00:22:35;7.70;99.90
76211;DHT22;65003;49.518;11.280;2024-03-02T00:25:00;7.60;99.90
76211;DHT22;65003;49.518;11.280;2024-03-02T00:27:27;7.80;99.90
76211;DHT22;65003;49.518;11.280;2024-03-02T00:29:54;7.80;99.90
76211;DHT22;65003;49.518;11.280;2024-03-02T00:32:20;7.80;99.90
76211;DHT22;65003;49.518;11.280;2024-03-02T00:34:47;6.60;99.90
76211;DHT22;65003;49.518;11.280;2024-03-02T00:37:13;7.80;99.90
76211;DHT22;65003;49.518;11.280;2024-03-02T00:39:40;7.80;99.90
76211;DHT22;65003;49.518;11.280;2024-03-02T00:42:07;7.80;99.90
76211;DHT22;65003;49.518;11.280;2024-03-02T00:44:33;7.80;99.90
76211;DHT22;65003;49.518;11.280;2024-03-02T00:47:00;7.80;99.90
76211;DHT22;65003;49.518;11.280;2024-03-02T00:49:26;7.80;99.90
76211;DHT22;65003;49.518;11.280;2024-03-02T00:51:53;7.80;99.90
76211;DHT22;65003;49.518;11.280;2024-03-02T00:54:22;7.80;99.90
76211;DHT22;65003;49.518;11.280;2024-03-02T00:56:47;7.90;99.90
76211;DHT22;65003;49.518;11.280;2024-03-02T00:59:14;7.80;99.90
76211;DHT22;65003;49.518;11.280;2024-03-02T01:01:40;7.80;99.90
76211;DHT22;65003;49.518;11.280;2024-03-02T01:04:07;7.80;99.90
76211;DHT22;65003;49.518;11.280;2024-03-02T01:06:34;7.80;99.90
76211;DHT22;65003;49.518;11.280;2024-03-02T01:09:00;7.80;99.90
76211;DHT22;65003;49.518;11.280;2024-03-02T01:11:27;7.80;99.90
76211;DHT22;65003;49.518;11.280;2024-03-02T01:13:53;7.80;99.90
76211;DHT22;65003;49.518;11.280;2024-03-02T01:16:20;7.80;99.90
76211;DHT22;65003;49.518;11.280;2024-03-02T01:18:46;7.70;99.90
76211;DHT22;65003;49.518;11.280;2024-03-02T01:21:13;7.70;99.90
76211;DHT22;65003;49.518;11.280;2024-03-02T01:23:39;7.80;99.90
76211;DHT22;65003;49.518;11.280;2024-03-02T01:26:11;7.90;99.90
76211;DHT22;65003;49.518;11.280;2024-03-02T01:28:37;7.80;99.90
76211;DHT22;65003;49.518;11.280;2024-03-02T01:31:04;8.00;99.90
76211;DHT22;65003;49.518;11.280;2024-03-02T01:33:31;7.80;99.90
76211;DHT22;65003;49.518;11.280;2024-03-02T01:35:57;7.70;99.90
76211;DHT22;65003;49.518;11.280;2024-03-02T01:38:24;7.60;99.90
76211;DHT22;65003;49.518;11.280;2024-03-02T01:40:50;7.70;99.90
76211;DHT22;65003;49.518;11.280;2024-03-02T01:43:17;7.70;99.90
76211;DHT22;65003;49.518;11.280;2024-03-02T01:45:44;8.20;99.90
76211;DHT22;65003;49.518;11.280;2024-03-02T01:48:10;7.70;99.90
76211;DHT22;65003;49.518;11.280;2024-03-02T01:50:37;7.70;99.90
76211;DHT22;65003;49.518;11.280;2024-03-02T01:53:03;7.90;99.90
76211;DHT22;65003;49.518;11.280;2024-03-02T01:55:30;7.60;99.90
76211;DHT22;65003;49.518;11.280;2024-03-02T01:57:57;7.70;99.90
76211;DHT22;65003;49.518;11.280;2024-03-02T02:00:23;7.70;99.90
76211;DHT22;65003;49.518;11.280;2024-03-02T02:02:50;7.60;99.90
76211;DHT22;65003;49.518;11.280;2024-03-02T02:05:16;7.50;99.90
76211;DHT22;65003;49.518;11.280;2024-03-02T02:07:43;7.50;99.90
76211;DHT22;65003;49.518;11.280;2024-03-02T02:10:10;7.50;99.90
76211;DHT22;65003;49.518;11.280;2024-03-02T02:12:36;7.50;99.90
76211;DHT22;65003;49.518;11.280;2024-03-02T02:15:03;7.50;99.90
76211;DHT22;65003;49.518;11.280;2024-03-02T02:17:29;7.60;99.90
76211;DHT22;65003;49.518;11.280;2024-03-02T02:19:56;7.60;99.90
76211;DHT22;65003;49.518;11.280;2024-03-02T02:22:23;7.60;99.90
76211;DHT22;65003;49.518;11.280;2024-03-02T02:24:49;7.60;99.90
76211;DHT22;65003;49.518;11.280;2024-03-02T02:27:16;7.70;99.90
76211;DHT22;65003;49.518;11.280;2024-03-02T02:29:42;7.70;99.90
76211;DHT22;65003;49.518;11.280;2024-03-02T02:32:09;7.70;99.90
76211;DHT22;65003;49.518;11.280;2024-03-02T02:34:36;7.70;99.90
76211;DHT22;65003;49.518;11.280;2024-03-02T02:37:02;7.70;99.90
76211;DHT22;65003;49.518;11.280;2024-03-02T02:39:29;6.80;99.90
76211;DHT22;65003;49.518;11.280;2024-03-02T02:41:55;7.70;99.90
76211;DHT22;65003;49.518;11.280;2024-03-02T02:44:22;7.60;99.90
76211;DHT22;65003;49.518;11.280;2024-03-02T02:46:48;7.70;99.90
76211;DHT22;65003;49.518;11.280;2024-03-02T02:49:15;7.80;99.90
76211;DHT22;65003;49.518;11.280;2024-03-02T02:51:42;7.90;99.90
76211;DHT22;65003;49.518;11.280;2024-03-02T02:54:08;8.00;99.90
76211;DHT22;65003;49.518;11.280;2024-03-02T02:56:35;8.20;99.90
76211;DHT22;65003;49.518;11.280;2024-03-02T02:59:01;7.90;99.90
76211;DHT22;65003;49.518;11.280;2024-03-02T03:01:28;7.90;99.90
76211;DHT22;65003;49.518;11.280;2024-03-02T03:03:55;7.90;99.90
76211;DHT22;65003;49.518;11.280;2024-03-02T03:06:21;7.90;99.90
76211;DHT22;65003;49.518;11.280;2024-03-02T03:08:48;7.90;99.90
76211;DHT22;65003;49.518;11.280;2024-03-02T03:11:14;7.30;99.90
76211;DHT22;65003;49.518;11.280;2024-03-02T03:13:41;8.00;99.90
76211;DHT22;65003;49.518;11.280;2024-03-02T03:16:08;8.00;99.90
76211;DHT22;65003;49.518;11.280;2024-03-02T03:18:35;8.00;99.90
76211;DHT22;65003;49.518;11.280;2024-03-02T03:21:02;8.00;99.90
76211;DHT22;65003;49.518;11.280;2024-03-02T03:23:28;8.10;99.90
76211;DHT22;65003;49.518;11.280;2024-03-02T03:25:55;8.10;99.90
76211;DHT22;65003;49.518;11.280;2024-03-02T03:28:21;8.10;99.90
76211;DHT22;65003;49.518;11.280;2024-03-02T03:30:48;8.20;99.90
76211;DHT22;65003;49.518;11.280;2024-03-02T03:33:15;8.20;99.90
76211;DHT22;65003;49.518;11.280;2024-03-02T03:35:41;8.10;99.90
76211;DHT22;65003;49.518;11.280;2024-03-02T03:38:08;8.10;99.90
76211;DHT22;65003;49.518;11.280;2024-03-02T03:40:34;8.00;99.90
76211;DHT22;65003;49.518;11.280;2024-03-02T03:43:01;8.00;99.90
76211;DHT22;65003;49.518;11.280;2024-03-02T03:45:27;8.00;99.90
76211;DHT22;65003;49.518;11.280;2024-03-02T03:47:54;7.80;99.90
76211;DHT22;65003;49.518;11.280;2024-03-02T03:50:21;8.10;99.90
76211;DHT22;65003;49.518;11.280;2024-03-02T03:52:47;8.20;99.90
76211;DHT22;65003;49.518;11.280;2024-03-02T03:55:14;8.00;99.90
76211;DHT22;65003;49.518;11.280;2024-03-02T03:57:40;8.20;99.90
76211;DHT22;65003;49.518;11.280;2024-03-02T04:00:08;8.80;99.90
76211;DHT22;65003;49.518;11.280;2024-03-02T04:02:34;8.20;99.90
76211;DHT22;65003;49.518;11.280;2024-03-02T04:05:01;8.20;99.90
76211;DHT22;65003;49.518;11.280;2024-03-02T04:07:27;8.20;99.90
76211;DHT22;65003;49.518;11.280;2024-03-02T04:09:54;8.20;99.90
76211;DHT22;65003;49.518;11.280;2024-03-02T04:12:21;8.10;99.90
76211;DHT22;65003;49.518;11.280;2024-03-02T04:14:47;8.10;99.90
76211;DHT22;65003;49.518;11.280;2024-03-02T04:17:14;8.00;99.90
76211;DHT22;65003;49.518;11.280;2024-03-02T04:19:40;7.90;99.90
76211;DHT22;65003;49.518;11.280;2024-03-02T04:22:07;7.90;99.90
76211;DHT22;65003;49.518;11.280;2024-03-02T04:24:34;8.10;99.90
76211;DHT22;65003;49.518;11.280;2024-03-02T04:27:00;7.80;99.90
76211;DHT22;65003;49.518;11.280;2024-03-02T04:29:27;7.90;99.90
76211;DHT22;65003;49.518;11.280;2024-03-02T04:31:53;8.00;99.90
76211;DHT22;65003;49.518;11.280;2024-03-02T04:34:20;7.80;99.90
76211;DHT22;65003;49.518;11.280;2024-03-02T04:36:47;7.70;99.90
76211;DHT22;65003;49.518;11.280;2024-03-02T04:39:13;7.70;99.90
76211;DHT22;65003;49.518;11.280;2024-03-02T04:41:40;7.60;99.90
76211;DHT22;65003;49.518;11.280;2024-03-02T04:44:06;7.70;99.90
76211;DHT22;65003;49.518;11.280;2024-03-02T04:46:33;6.50;99.90
76211;DHT22;65003;49.518;11.280;2024-03-02T04:48:59;7.60;99.90
76211;DHT22;65003;49.518;11.280;2024-03-02T04:51:26;7.50;99.90
76211;DHT22;65003;49.518;11.280;2024-03-02T04:53:53;7.80;99.90
76211;DHT22;65003;49.518;11.280;2024-03-02T04:56:19;7.50;99.90
76211;DHT22;65003;49.518;11.280;2024-03-02T04:58:46;7.50;99.90
76211;DHT22;65003;49.518;11.280;2024-03-02T05:01:12;7.60;99.90
76211;DHT22;65003;49.518;11.280;2024-03-02T05:03:39;7.60;99.90
76211;DHT22;65003;49.518;11.280;2024-03-02T05:06:06;7.50;99.90
76211;DHT22;65003;49.518;11.280;2024-03-02T05:08:32;7.60;99.90
76211;DHT22;65003;49.518;11.280;2024-03-02T05:10:59;7.60;99.90
76211;DHT22;65003;49.518;11.280;2024-03-02T05:13:25;7.60;99.90
76211;DHT22;65003;49.518;11.280;2024-03-02T05:15:52;7.60;99.90
76211;DHT22;65003;49.518;11.280;2024-03-02T05:18:19;7.60;99.90
76211;DHT22;65003;49.518;11.280;2024-03-02T05:20:45;7.60;99.90
76211;DHT22;65003;49.518;11.280;2024-03-02T05:23:12;7.60;99.90
76211;DHT22;65003;49.518;11.280;2024-03-02T05:25:38;7.50;99.90
76211;DHT22;65003;49.518;11.280;2024-03-02T05:28:05;7.70;99.90
76211;DHT22;65003;49.518;11.280;2024-03-02T05:30:32;7.40;99.90
76211;DHT22;65003;49.518;11.280;2024-03-02T05:32:58;7.50;99.90
76211;DHT22;65003;49.518;11.280;2024-03-02T05:35:25;7.60;99.90
76211;DHT22;65003;49.518;11.280;2024-03-02T05:37:51;7.40;99.90
76211;DHT22;65003;49.518;11.280;2024-03-02T05:40:18;7.40;99.90
76211;DHT22;65003;49.518;11.280;2024-03-02T05:42:44;7.60;99.90
76211;DHT22;65003;49.518;11.280;2024-03-02T05:45:11;7.50;99.90
76211;DHT22;65003;49.518;11.280;2024-03-02T05:47:38;7.40;99.90
76211;DHT22;65003;49.518;11.280;2024-03-02T05:50:05;7.50;99.90
76211;DHT22;65003;49.518;11.280;2024-03-02T05:52:31;7.50;99.90
76211;DHT22;65003;49.518;11.280;2024-03-02T05:54:58;7.30;99.90
76211;DHT22;65003;49.518;11.280;2024-03-02T05:57:24;7.50;99.90
76211;DHT22;65003;49.518;11.280;2024-03-02T06:00:03;7.50;99.90
76211;DHT22;65003;49.518;11.280;2024-03-02T06:02:30;7.70;99.90
76211;DHT22;65003;49.518;11.280;2024-03-02T06:04:56;7.50;99.90
76211;DHT22;65003;49.518;11.280;2024-03-02T06:07:23;7.50;99.90
76211;DHT22;65003;49.518;11.280;2024-03-02T06:09:50;7.50;99.90
76211;DHT22;65003;49.518;11.280;2024-03-02T06:12:16;7.40;99.90
76211;DHT22;65003;49.518;11.280;2024-03-02T06:14:43;7.40;99.90
76211;DHT22;65003;49.518;11.280;2024-03-02T06:17:09;7.50;99.90
76211;DHT22;65003;49.518;11.280;2024-03-02T06:19:36;7.50;99.90
76211;DHT22;65003;49.518;11.280;2024-03-02T06:22:03;7.70;99.90
76211;DHT22;65003;49.518;11.280;2024-03-02T06:24:29;7.70;99.90
76211;DHT22;65003;49.518;11.280;2024-03-02T06:26:56;7.60;99.90
76211;DHT22;65003;49.518;11.280;2024-03-02T06:29:22;7.60;99.90
76211;DHT22;65003;49.518;11.280;2024-03-02T06:31:49;7.80;99.90
76211;DHT22;65003;49.518;11.280;2024-03-02T06:34:16;7.80;99.90
76211;DHT22;65003;49.518;11.280;2024-03-02T06:36:42;7.90;99.90
76211;DHT22;65003;49.518;11.280;2024-03-02T06:39:09;8.00;99.90
76211;DHT22;65003;49.518;11.280;2024-03-02T06:41:35;7.70;99.90
76211;DHT22;65003;49.518;11.280;2024-03-02T06:44:02;8.00;99.90
76211;DHT22;65003;49.518;11.280;2024-03-02T06:46:29;7.90;99.90
76211;DHT22;65003;49.518;11.280;2024-03-02T06:48:55;7.90;99.90
76211;DHT22;65003;49.518;11.280;2024-03-02T06:51:22;7.80;99.90
76211;DHT22;65003;49.518;11.280;2024-03-02T06:53:48;7.80;99.90
76211;DHT22;65003;49.518;11.280;2024-03-02T06:56:15;7.90;99.90
76211;DHT22;65003;49.518;11.280;2024-03-02T06:58:41;7.80;99.90
76211;DHT22;65003;49.518;11.280;2024-03-02T07:01:08;8.60;99.90
76211;DHT22;65003;49.518;11.280;2024-03-02T07:03:35;7.90;99.90
76211;DHT22;65003;49.518;11.280;2024-03-02T07:06:02;8.00;99.90
76211;DHT22;65003;49.518;11.280;2024-03-02T07:08:28;8.00;99.90
76211;DHT22;65003;49.518;11.280;2024-03-02T07:10:55;8.10;99.90
76211;DHT22;65003;49.518;11.280;2024-03-02T07:13:21;8.10;99.90
76211;DHT22;65003;49.518;11.280;2024-03-02T07:15:48;8.10;99.90
76211;DHT22;65003;49.518;11.280;2024-03-02T07:18:20;8.20;99.90
76211;DHT22;65003;49.518;11.280;2024-03-02T07:20:47;8.00;99.90
76211;DHT22;65003;49.518;11.280;2024-03-02T07:23:13;8.50;99.90
76211;DHT22;65003;49.518;11.280;2024-03-02T07:25:40;8.40;99.90
76211;DHT22;65003;49.518;11.280;2024-03-02T07:28:06;8.60;99.90
76211;DHT22;65003;49.518;11.280;2024-03-02T07:30:33;8.90;99.90
76211;DHT22;65003;49.518;11.280;2024-03-02T07:33:00;9.10;99.90
76211;DHT22;65003;49.518;11.280;2024-03-02T07:35:26;9.40;99.90
76211;DHT22;65003;49.518;11.280;2024-03-02T07:37:53;9.60;99.90
76211;DHT22;65003;49.518;11.280;2024-03-02T07:40:19;9.80;99.90
76211;DHT22;65003;49.518;11.280;2024-03-02T07:42:46;10.00;99.90
76211;DHT22;65003;49.518;11.280;2024-03-02T07:45:13;10.10;99.90
76211;DHT22;65003;49.518;11.280;2024-03-02T07:47:39;10.20;99.90
76211;DHT22;65003;49.518;11.280;2024-03-02T07:50:06;10.60;99.90
76211;DHT22;65003;49.518;11.280;2024-03-02T07:52:33;11.20;99.90
76211;DHT22;65003;49.518;11.280;2024-03-02T07:54:59;12.20;99.90
76211;DHT22;65003;49.518;11.280;2024-03-02T07:57:26;12.60;99.90
76211;DHT22;65003;49.518;11.280;2024-03-02T07:59:52;13.40;99.90
76211;DHT22;65003;49.518;11.280;2024-03-02T08:02:19;14.60;99.90
76211;DHT22;65003;49.518;11.280;2024-03-02T08:04:45;15.40;99.90
76211;DHT22;65003;49.518;11.280;2024-03-02T08:07:12;16.40;99.90
76211;DHT22;65003;49.518;11.280;2024-03-02T08:09:39;17.10;99.90
76211;DHT22;65003;49.518;11.280;2024-03-02T08:12:05;17.40;99.50
76211;DHT22;65003;49.518;11.280;2024-03-02T08:14:32;17.10;98.90
76211;DHT22;65003;49.518;11.280;2024-03-02T08:16:59;16.80;99.10
76211;DHT22;65003;49.518;11.280;2024-03-02T08:19:25;16.50;99.90
76211;DHT22;65003;49.518;11.280;2024-03-02T08:21:52;16.10;99.90
76211;DHT22;65003;49.518;11.280;2024-03-02T08:24:18;16.70;99.90
76211;DHT22;65003;49.518;11.280;2024-03-02T08:26:45;16.20;99.70
76211;DHT22;65003;49.518;11.280;2024-03-02T08:29:11;16.20;99.50
76211;DHT22;65003;49.518;11.280;2024-03-02T08:31:38;16.00;99.90
76211;DHT22;65003;49.518;11.280;2024-03-02T08:34:05;15.30;99.90
76211;DHT22;65003;49.518;11.280;2024-03-02T08:36:31;15.10;99.90
76211;DHT22;65003;49.518;11.280;2024-03-02T08:38:58;15.80;99.90
76211;DHT22;65003;49.518;11.280;2024-03-02T08:41:24;15.30;99.90
76211;DHT22;65003;49.518;11.280;2024-03-02T08:43:51;15.60;99.90
76211;DHT22;65003;49.518;11.280;2024-03-02T08:46:18;15.50;99.90
76211;DHT22;65003;49.518;11.280;2024-03-02T08:48:44;15.80;99.90
76211;DHT22;65003;49.518;11.280;2024-03-02T08:51:11;15.70;99.90
76211;DHT22;65003;49.518;11.280;2024-03-02T08:53:37;15.70;99.90
76211;DHT22;65003;49.518;11.280;2024-03-02T08:56:04;15.90;99.90
76211;DHT22;65003;49.518;11.280;2024-03-02T08:58:31;16.00;99.30
76211;DHT22;65003;49.518;11.280;2024-03-02T09:00:57;16.20;98.60
76211;DHT22;65003;49.518;11.280;2024-03-02T09:03:24;17.00;98.50
76211;DHT22;65003;49.518;11.280;2024-03-02T09:05:50;16.90;98.00
76211;DHT22;65003;49.518;11.280;2024-03-02T09:08:17;17.20;97.50
76211;DHT22;65003;49.518;11.280;2024-03-02T09:10:44;17.70;96.50
76211;DHT22;65003;49.518;11.280;2024-03-02T09:13:10;18.40;94.20
76211;DHT22;65003;49.518;11.280;2024-03-02T09:15:37;18.60;93.80
76211;DHT22;65003;49.518;11.280;2024-03-02T09:18:04;18.80;95.10
76211;DHT22;65003;49.518;11.280;2024-03-02T09:20:30;19.10;96.00
76211;DHT22;65003;49.518;11.280;2024-03-02T09:22:57;18.90;98.10
76211;DHT22;65003;49.518;11.280;2024-03-02T09:25:23;18.90;98.10
76211;DHT22;65003;49.518;11.280;2024-03-02T09:27:50;18.50;98.30
76211;DHT22;65003;49.518;11.280;2024-03-02T09:30:17;17.50;98.10
76211;DHT22;65003;49.518;11.280;2024-03-02T09:32:43;17.80;98.50
76211;DHT22;65003;49.518;11.280;2024-03-02T09:35:10;17.70;98.40
76211;DHT22;65003;49.518;11.280;2024-03-02T09:37:36;17.60;98.80
76211;DHT22;65003;49.518;11.280;2024-03-02T09:40:03;17.50;99.70
76211;DHT22;65003;49.518;11.280;2024-03-02T09:42:30;17.70;99.90
76211;DHT22;65003;49.518;11.280;2024-03-02T09:44:57;18.00;99.90
76211;DHT22;65003;49.518;11.280;2024-03-02T09:47:23;17.90;99.90
76211;DHT22;65003;49.518;11.280;2024-03-02T09:49:50;17.70;99.90
76211;DHT22;65003;49.518;11.280;2024-03-02T09:52:16;17.40;99.90
76211;DHT22;65003;49.518;11.280;2024-03-02T09:54:43;17.10;99.90
76211;DHT22;65003;49.518;11.280;2024-03-02T09:57:10;17.00;99.90
76211;DHT22;65003;49.518;11.280;2024-03-02T09:59:36;16.90;99.90
76211;DHT22;65003;49.518;11.280;2024-03-02T10:02:03;16.80;99.90
76211;DHT22;65003;49.518;11.280;2024-03-02T10:04:30;16.20;99.90
76211;DHT22;65003;49.518;11.280;2024-03-02T10:09:35;16.10;99.90
76211;DHT22;65003;49.518;11.280;2024-03-02T10:12:04;15.80;99.90
76211;DHT22;65003;49.518;11.280;2024-03-02T10:14:30;15.70;99.90
76211;DHT22;65003;49.518;11.280;2024-03-02T10:17:03;15.90;99.90
76211;DHT22;65003;49.518;11.280;2024-03-02T10:19:30;16.00;99.90
76211;DHT22;65003;49.518;11.280;2024-03-02T10:21:59;15.70;99.90
76211;DHT22;65003;49.518;11.280;2024-03-02T10:24:26;15.60;99.90
76211;DHT22;65003;49.518;11.280;2024-03-02T10:26:52;16.00;99.90
76211;DHT22;65003;49.518;11.280;2024-03-02T10:29:19;16.80;98.50
76211;DHT22;65003;49.518;11.280;2024-03-02T10:31:46;17.30;97.50
76211;DHT22;65003;49.518;11.280;2024-03-02T10:34:12;17.30;96.90
76211;DHT22;65003;49.518;11.280;2024-03-02T10:36:41;17.80;96.30
76211;DHT22;65003;49.518;11.280;2024-03-02T10:39:07;18.00;96.00
76211;DHT22;65003;49.518;11.280;2024-03-02T10:41:35;18.00;95.60
76211;DHT22;65003;49.518;11.280;2024-03-02T10:44:03;17.70;95.60
76211;DHT22;65003;49.518;11.280;2024-03-02T10:46:30;17.10;97.00
76211;DHT22;65003;49.518;11.280;2024-03-02T10:48:57;16.80;97.40
76211;DHT22;65003;49.518;11.280;2024-03-02T10:51:26;16.90;97.60
76211;DHT22;65003;49.518;11.280;2024-03-02T10:53:52;17.10;97.00
76211;DHT22;65003;49.518;11.280;2024-03-02T10:56:26;17.10;96.90
76211;DHT22;65003;49.518;11.280;2024-03-02T10:58:48;16.90;96.90
76211;DHT22;65003;49.518;11.280;2024-03-02T11:01:15;16.70;97.30
76211;DHT22;65003;49.518;11.280;2024-03-02T11:03:42;16.60;97.80
76211;DHT22;65003;49.518;11.280;2024-03-02T11:06:08;16.70;97.40
76211;DHT22;65003;49.518;11.280;2024-03-02T11:08:35;16.90;97.20
76211;DHT22;65003;49.518;11.280;2024-03-02T11:11:07;17.00;97.10
76211;DHT22;65003;49.518;11.280;2024-03-02T11:13:33;16.90;97.80
76211;DHT22;65003;49.518;11.280;2024-03-02T11:16:05;16.90;97.90
76211;DHT22;65003;49.518;11.280;2024-03-02T11:18:30;16.40;98.50
76211;DHT22;65003;49.518;11.280;2024-03-02T11:20:57;16.20;98.80
76211;DHT22;65003;49.518;11.280;2024-03-02T11:23:31;15.90;99.30
76211;DHT22;65003;49.518;11.280;2024-03-02T11:26:32;15.50;99.90
76211;DHT22;65003;49.518;11.280;2024-03-02T11:28:42;15.00;99.90
76211;DHT22;65003;49.518;11.280;2024-03-02T11:31:08;14.70;99.90
76211;DHT22;65003;49.518;11.280;2024-03-02T11:33:35;14.50;99.90
76211;DHT22;65003;49.518;11.280;2024-03-02T11:36:02;14.90;99.90
76211;DHT22;65003;49.518;11.280;2024-03-02T11:38:30;15.30;99.90
76211;DHT22;65003;49.518;11.280;2024-03-02T11:40:56;15.40;99.90
76211;DHT22;65003;49.518;11.280;2024-03-02T11:43:23;15.30;99.90
76211;DHT22;65003;49.518;11.280;2024-03-02T11:45:52;15.30;99.90
76211;DHT22;65003;49.518;11.280;2024-03-02T11:48:16;15.30;99.90
76211;DHT22;65003;49.518;11.280;2024-03-02T11:50:46;15.00;99.90
76211;DHT22;65003;49.518;11.280;2024-03-02T11:53:09;14.80;99.90
76211;DHT22;65003;49.518;11.280;2024-03-02T11:55:36;14.40;99.90
76211;DHT22;65003;49.518;11.280;2024-03-02T11:58:03;14.60;99.90
76211;DHT22;65003;49.518;11.280;2024-03-02T12:00:29;15.00;99.90
76211;DHT22;65003;49.518;11.280;2024-03-02T12:03:01;15.50;99.90
76211;DHT22;65003;49.518;11.280;2024-03-02T12:05:27;15.70;99.90
76211;DHT22;65003;49.518;11.280;2024-03-02T12:07:57;15.80;99.90
76211;DHT22;65003;49.518;11.280;2024-03-02T12:10:24;15.70;99.90
76211;DHT22;65003;49.518;11.280;2024-03-02T12:12:56;15.90;99.90
76211;DHT22;65003;49.518;11.280;2024-03-02T12:15:23;16.20;99.90
76211;DHT22;65003;49.518;11.280;2024-03-02T12:17:52;16.50;99.60
76211;DHT22;65003;49.518;11.280;2024-03-02T12:20:16;16.50;98.60
76211;DHT22;65003;49.518;11.280;2024-03-02T12:22:42;16.40;99.00
76211;DHT22;65003;49.518;11.280;2024-03-02T12:25:09;16.40;98.80
76211;DHT22;65003;49.518;11.280;2024-03-02T12:27:35;16.30;98.50
76211;DHT22;65003;49.518;11.280;2024-03-02T12:30:02;16.40;98.50
76211;DHT22;65003;49.518;11.280;2024-03-02T12:32:29;16.40;98.70
76211;DHT22;65003;49.518;11.280;2024-03-02T12:34:55;16.50;98.50
76211;DHT22;65003;49.518;11.280;2024-03-02T12:37:22;16.50;98.60
76211;DHT22;65003;49.518;11.280;2024-03-02T12:39:49;16.60;97.60
76211;DHT22;65003;49.518;11.280;2024-03-02T12:42:15;16.50;98.10
76211;DHT22;65003;49.518;11.280;2024-03-02T12:44:42;16.40;98.20
76211;DHT22;65003;49.518;11.280;2024-03-02T12:47:08;16.30;98.70
76211;DHT22;65003;49.518;11.280;2024-03-02T12:49:36;16.10;98.60
76211;DHT22;65003;49.518;11.280;2024-03-02T12:52:02;16.00;99.20
76211;DHT22;65003;49.518;11.280;2024-03-02T12:54:28;15.70;99.80
76211;DHT22;65003;49.518;11.280;2024-03-02T12:56:56;15.60;99.70
76211;DHT22;65003;49.518;11.280;2024-03-02T12:59:23;16.10;99.90
76211;DHT22;65003;49.518;11.280;2024-03-02T13:01:51;15.50;99.90
76211;DHT22;65003;49.518;11.280;2024-03-02T13:04:17;15.30;99.90
76211;DHT22;65003;49.518;11.280;2024-03-02T13:06:44;15.30;99.90
76211;DHT22;65003;49.518;11.280;2024-03-02T13:09:10;15.40;99.70
76211;DHT22;65003;49.518;11.280;2024-03-02T13:11:37;15.30;99.30
76211;DHT22;65003;49.518;11.280;2024-03-02T13:14:04;15.20;99.70
76211;DHT22;65003;49.518;11.280;2024-03-02T13:16:30;14.90;99.90
76211;DHT22;65003;49.518;11.280;2024-03-02T13:18:56;14.90;99.90
76211;DHT22;65003;49.518;11.280;2024-03-02T13:21:23;15.10;99.90
76211;DHT22;65003;49.518;11.280;2024-03-02T13:23:50;15.30;99.90
76211;DHT22;65003;49.518;11.280;2024-03-02T13:26:16;15.00;99.90
76211;DHT22;65003;49.518;11.280;2024-03-02T13:28:43;15.10;99.90
76211;DHT22;65003;49.518;11.280;2024-03-02T13:31:09;15.00;99.90
76211;DHT22;65003;49.518;11.280;2024-03-02T13:33:36;15.00;99.90
76211;DHT22;65003;49.518;11.280;2024-03-02T13:36:03;14.70;99.90
76211;DHT22;65003;49.518;11.280;2024-03-02T13:38:29;14.50;99.90
76211;DHT22;65003;49.518;11.280;2024-03-02T13:40:56;14.40;99.90
76211;DHT22;65003;49.518;11.280;2024-03-02T13:43:22;14.20;99.90
76211;DHT22;65003;49.518;11.280;2024-03-02T13:45:49;14.00;99.90
76211;DHT22;65003;49.518;11.280;2024-03-02T13:48:16;13.90;99.90
76211;DHT22;65003;49.518;11.280;2024-03-02T13:50:42;13.80;99.90
76211;DHT22;65003;49.518;11.280;2024-03-02T13:53:09;13.60;99.90
76211;DHT22;65003;49.518;11.280;2024-03-02T13:55:36;13.30;99.90
76211;DHT22;65003;49.518;11.280;2024-03-02T13:58:02;13.20;99.90
76211;DHT22;65003;49.518;11.280;2024-03-02T14:00:29;13.10;99.90
76211;DHT22;65003;49.518;11.280;2024-03-02T14:02:55;13.00;99.90
76211;DHT22;65003;49.518;11.280;2024-03-02T14:05:22;12.90;99.90
76211;DHT22;65003;49.518;11.280;2024-03-02T14:07:49;12.20;99.90
76211;DHT22;65003;49.518;11.280;2024-03-02T14:10:15;12.90;99.90
76211;DHT22;65003;49.518;11.280;2024-03-02T14:12:42;12.80;99.90
76211;DHT22;65003;49.518;11.280;2024-03-02T14:15:09;12.80;99.90
76211;DHT22;65003;49.518;11.280;2024-03-02T14:17:35;12.80;99.90
76211;DHT22;65003;49.518;11.280;2024-03-02T14:20:02;12.70;99.90
76211;DHT22;65003;49.518;11.280;2024-03-02T14:22:28;12.90;99.90
76211;DHT22;65003;49.518;11.280;2024-03-02T14:24:55;12.90;99.90
76211;DHT22;65003;49.518;11.280;2024-03-02T14:27:22;12.70;99.90
76211;DHT22;65003;49.518;11.280;2024-03-02T14:29:48;12.50;99.90
76211;DHT22;65003;49.518;11.280;2024-03-02T14:32:15;12.20;99.90
76211;DHT22;65003;49.518;11.280;2024-03-02T14:34:41;12.30;99.90
76211;DHT22;65003;49.518;11.280;2024-03-02T14:37:08;12.30;99.90
76211;DHT22;65003;49.518;11.280;2024-03-02T14:39:35;11.90;99.90
76211;DHT22;65003;49.518;11.280;2024-03-02T14:42:02;12.20;99.90
76211;DHT22;65003;49.518;11.280;2024-03-02T14:44:29;12.20;99.90
76211;DHT22;65003;49.518;11.280;2024-03-02T14:46:55;12.00;99.90
76211;DHT22;65003;49.518;11.280;2024-03-02T14:49:22;11.70;99.90
76211;DHT22;65003;49.518;11.280;2024-03-02T14:51:48;11.70;99.90
76211;DHT22;65003;49.518;11.280;2024-03-02T14:54:15;11.80;99.90
76211;DHT22;65003;49.518;11.280;2024-03-02T14:56:42;11.60;99.90
76211;DHT22;65003;49.518;11.280;2024-03-02T14:59:08;11.70;99.90
76211;DHT22;65003;49.518;11.280;2024-03-02T15:01:35;11.60;99.90
76211;DHT22;65003;49.518;11.280;2024-03-02T15:04:01;11.50;99.90
76211;DHT22;65003;49.518;11.280;2024-03-02T15:06:28;11.00;99.90
76211;DHT22;65003;49.518;11.280;2024-03-02T15:08:55;11.30;99.90
76211;DHT22;65003;49.518;11.280;2024-03-02T15:11:21;11.30;99.90
76211;DHT22;65003;49.518;11.280;2024-03-02T15:13:48;11.20;99.90
76211;DHT22;65003;49.518;11.280;2024-03-02T15:16:14;11.10;99.90
76211;DHT22;65003;49.518;11.280;2024-03-02T15:18:41;11.00;99.90
76211;DHT22;65003;49.518;11.280;2024-03-02T15:21:07;10.90;99.90
76211;DHT22;65003;49.518;11.280;2024-03-02T15:23:34;10.80;99.90